<?xml version="1.0" encoding="UTF-8" standalone="no" ?>
<gpx xmlns="http://www.topografix.com/GPX/1/1" xmlns:xsi="http://www.w3.org/2001/XMLSchema-instance" xsi:schemaLocation="http://www.topografix.com/GPX/1/1 http://www.topografix.com/GPX/1/1/gpx.xsd" version="1.1" creator="VisuGPX - https://www.visugpx.com">
  <metadata>
    <name>Tour de France 2019</name>
    <desc><![CDATA[4272km en 2 mois en tandem avec notre petit chien dans le panier avant]]></desc>
  </metadata>
  <trk>
    <name><![CDATA[Tracé 20190916-131917]]></name>
    <trkseg>
      <trkpt lat="50.46492" lon="1.57765">
        <ele>24.079</ele>
        <time>2019-09-16T11:21:17.000Z</time>
      </trkpt>
      <trkpt lat="50.46433" lon="1.57804">
        <ele>20.549</ele>
        <time>2019-09-16T11:25:14.000Z</time>
      </trkpt>
      <trkpt lat="50.46317" lon="1.57879">
        <ele>15.648</ele>
        <time>2019-09-16T11:25:44.000Z</time>
      </trkpt>
      <trkpt lat="50.46242" lon="1.58006">
        <ele>14.88</ele>
        <time>2019-09-16T11:26:14.000Z</time>
      </trkpt>
      <trkpt lat="50.46162" lon="1.58072">
        <ele>16.306</ele>
        <time>2019-09-16T11:26:44.000Z</time>
      </trkpt>
      <trkpt lat="50.46124" lon="1.58301">
        <ele>15.089</ele>
        <time>2019-09-16T11:27:14.000Z</time>
      </trkpt>
      <trkpt lat="50.46086" lon="1.58569">
        <ele>15.742</ele>
        <time>2019-09-16T11:27:44.000Z</time>
      </trkpt>
      <trkpt lat="50.46042" lon="1.58832">
        <ele>14.749</ele>
        <time>2019-09-16T11:28:14.000Z</time>
      </trkpt>
      <trkpt lat="50.46002" lon="1.59097">
        <ele>15.734</ele>
        <time>2019-09-16T11:28:44.000Z</time>
      </trkpt>
      <trkpt lat="50.45955" lon="1.59394">
        <ele>11.88</ele>
        <time>2019-09-16T11:29:17.000Z</time>
      </trkpt>
      <trkpt lat="50.45914" lon="1.59655">
        <ele>15.347</ele>
        <time>2019-09-16T11:29:47.000Z</time>
      </trkpt>
      <trkpt lat="50.45874" lon="1.59901">
        <ele>15.862</ele>
        <time>2019-09-16T11:30:17.000Z</time>
      </trkpt>
      <trkpt lat="50.45835" lon="1.60138">
        <ele>14.158</ele>
        <time>2019-09-16T11:30:47.000Z</time>
      </trkpt>
      <trkpt lat="50.45826" lon="1.60179">
        <ele>13.861</ele>
        <time>2019-09-16T11:31:59.000Z</time>
      </trkpt>
      <trkpt lat="50.45794" lon="1.60287">
        <ele>13.296</ele>
        <time>2019-09-16T11:33:11.000Z</time>
      </trkpt>
      <trkpt lat="50.45716" lon="1.60435">
        <ele>14.158</ele>
        <time>2019-09-16T11:33:41.000Z</time>
      </trkpt>
      <trkpt lat="50.45623" lon="1.60606">
        <ele>16.861</ele>
        <time>2019-09-16T11:34:11.000Z</time>
      </trkpt>
      <trkpt lat="50.45582" lon="1.6085">
        <ele>16.182</ele>
        <time>2019-09-16T11:34:41.000Z</time>
      </trkpt>
      <trkpt lat="50.45557" lon="1.61153">
        <ele>14.52</ele>
        <time>2019-09-16T11:35:11.000Z</time>
      </trkpt>
      <trkpt lat="50.45591" lon="1.61378">
        <ele>14.389</ele>
        <time>2019-09-16T11:35:41.000Z</time>
      </trkpt>
      <trkpt lat="50.45665" lon="1.61612">
        <ele>14.505</ele>
        <time>2019-09-16T11:36:11.000Z</time>
      </trkpt>
      <trkpt lat="50.45745" lon="1.61866">
        <ele>16.567</ele>
        <time>2019-09-16T11:36:41.000Z</time>
      </trkpt>
      <trkpt lat="50.45806" lon="1.62134">
        <ele>12.475</ele>
        <time>2019-09-16T11:37:11.000Z</time>
      </trkpt>
      <trkpt lat="50.45862" lon="1.62395">
        <ele>14.449</ele>
        <time>2019-09-16T11:37:41.000Z</time>
      </trkpt>
      <trkpt lat="50.45964" lon="1.62632">
        <ele>8.806</ele>
        <time>2019-09-16T11:38:11.000Z</time>
      </trkpt>
      <trkpt lat="50.45994" lon="1.62896">
        <ele>7.818</ele>
        <time>2019-09-16T11:38:41.000Z</time>
      </trkpt>
      <trkpt lat="50.46002" lon="1.63189">
        <ele>12.158</ele>
        <time>2019-09-16T11:39:14.000Z</time>
      </trkpt>
      <trkpt lat="50.46064" lon="1.63442">
        <ele>14.647</ele>
        <time>2019-09-16T11:39:44.000Z</time>
      </trkpt>
      <trkpt lat="50.4617" lon="1.63654">
        <ele>13.949</ele>
        <time>2019-09-16T11:40:14.000Z</time>
      </trkpt>
      <trkpt lat="50.46242" lon="1.63896">
        <ele>13.683</ele>
        <time>2019-09-16T11:40:44.000Z</time>
      </trkpt>
      <trkpt lat="50.46264" lon="1.64165">
        <ele>12.245</ele>
        <time>2019-09-16T11:41:14.000Z</time>
      </trkpt>
      <trkpt lat="50.46283" lon="1.64432">
        <ele>8.29</ele>
        <time>2019-09-16T11:41:44.000Z</time>
      </trkpt>
      <trkpt lat="50.46302" lon="1.64672">
        <ele>10.915</ele>
        <time>2019-09-16T11:42:14.000Z</time>
      </trkpt>
      <trkpt lat="50.46322" lon="1.64856">
        <ele>16.533</ele>
        <time>2019-09-16T11:42:44.000Z</time>
      </trkpt>
      <trkpt lat="50.46318" lon="1.65067">
        <ele>16.604</ele>
        <time>2019-09-16T11:43:14.000Z</time>
      </trkpt>
      <trkpt lat="50.46328" lon="1.65309">
        <ele>17.01</ele>
        <time>2019-09-16T11:43:44.000Z</time>
      </trkpt>
      <trkpt lat="50.46384" lon="1.65549">
        <ele>18.116</ele>
        <time>2019-09-16T11:44:14.000Z</time>
      </trkpt>
      <trkpt lat="50.4645" lon="1.65769">
        <ele>16.807</ele>
        <time>2019-09-16T11:44:44.000Z</time>
      </trkpt>
      <trkpt lat="50.46519" lon="1.65955">
        <ele>19.261</ele>
        <time>2019-09-16T11:45:14.000Z</time>
      </trkpt>
      <trkpt lat="50.46581" lon="1.66091">
        <ele>27.641</ele>
        <time>2019-09-16T11:45:44.000Z</time>
      </trkpt>
      <trkpt lat="50.46625" lon="1.66243">
        <ele>33.529</ele>
        <time>2019-09-16T11:46:14.000Z</time>
      </trkpt>
      <trkpt lat="50.46628" lon="1.66375">
        <ele>34.175</ele>
        <time>2019-09-16T11:46:44.000Z</time>
      </trkpt>
      <trkpt lat="50.46675" lon="1.664">
        <ele>42.674</ele>
        <time>2019-09-16T11:47:14.000Z</time>
      </trkpt>
      <trkpt lat="50.46763" lon="1.66332">
        <ele>51.109</ele>
        <time>2019-09-16T11:47:47.000Z</time>
      </trkpt>
      <trkpt lat="50.46903" lon="1.66353">
        <ele>50.83</ele>
        <time>2019-09-16T11:48:17.000Z</time>
      </trkpt>
      <trkpt lat="50.47048" lon="1.66351">
        <ele>43.219</ele>
        <time>2019-09-16T11:48:47.000Z</time>
      </trkpt>
      <trkpt lat="50.47299" lon="1.66569">
        <ele>27.465</ele>
        <time>2019-09-16T11:49:17.000Z</time>
      </trkpt>
      <trkpt lat="50.47477" lon="1.66677">
        <ele>21.803</ele>
        <time>2019-09-16T11:49:47.000Z</time>
      </trkpt>
      <trkpt lat="50.4752" lon="1.66808">
        <ele>25.959</ele>
        <time>2019-09-16T11:50:17.000Z</time>
      </trkpt>
      <trkpt lat="50.47577" lon="1.66918">
        <ele>33.748</ele>
        <time>2019-09-16T11:50:47.000Z</time>
      </trkpt>
      <trkpt lat="50.47674" lon="1.67013">
        <ele>37.541</ele>
        <time>2019-09-16T11:51:17.000Z</time>
      </trkpt>
      <trkpt lat="50.47799" lon="1.67277">
        <ele>31.542</ele>
        <time>2019-09-16T11:51:47.000Z</time>
      </trkpt>
      <trkpt lat="50.47839" lon="1.67536">
        <ele>23.228</ele>
        <time>2019-09-16T11:52:17.000Z</time>
      </trkpt>
      <trkpt lat="50.47948" lon="1.67814">
        <ele>17.853</ele>
        <time>2019-09-16T11:52:47.000Z</time>
      </trkpt>
      <trkpt lat="50.47889" lon="1.68143">
        <ele>7.8</ele>
        <time>2019-09-16T11:53:17.000Z</time>
      </trkpt>
      <trkpt lat="50.47977" lon="1.68323">
        <ele>12.113</ele>
        <time>2019-09-16T11:53:47.000Z</time>
      </trkpt>
      <trkpt lat="50.48109" lon="1.68426">
        <ele>21.27</ele>
        <time>2019-09-16T11:54:17.000Z</time>
      </trkpt>
      <trkpt lat="50.48177" lon="1.68617">
        <ele>21.562</ele>
        <time>2019-09-16T11:54:47.000Z</time>
      </trkpt>
      <trkpt lat="50.48198" lon="1.68934">
        <ele>18.851</ele>
        <time>2019-09-16T11:55:17.000Z</time>
      </trkpt>
      <trkpt lat="50.48292" lon="1.69145">
        <ele>9.812</ele>
        <time>2019-09-16T11:55:47.000Z</time>
      </trkpt>
      <trkpt lat="50.48473" lon="1.69196">
        <ele>7.146</ele>
        <time>2019-09-16T11:56:20.000Z</time>
      </trkpt>
      <trkpt lat="50.48588" lon="1.6939">
        <ele>3.969</ele>
        <time>2019-09-16T11:56:50.000Z</time>
      </trkpt>
      <trkpt lat="50.48758" lon="1.69435">
        <ele>9.352</ele>
        <time>2019-09-16T11:57:20.000Z</time>
      </trkpt>
      <trkpt lat="50.48934" lon="1.69493">
        <ele>9.481</ele>
        <time>2019-09-16T11:57:50.000Z</time>
      </trkpt>
      <trkpt lat="50.49033" lon="1.69627">
        <ele>7.843</ele>
        <time>2019-09-16T11:58:20.000Z</time>
      </trkpt>
      <trkpt lat="50.48983" lon="1.69872">
        <ele>9.368</ele>
        <time>2019-09-16T11:58:50.000Z</time>
      </trkpt>
      <trkpt lat="50.4897" lon="1.70125">
        <ele>6.642</ele>
        <time>2019-09-16T11:59:20.000Z</time>
      </trkpt>
      <trkpt lat="50.49015" lon="1.70372">
        <ele>5.021</ele>
        <time>2019-09-16T11:59:50.000Z</time>
      </trkpt>
      <trkpt lat="50.48947" lon="1.70608">
        <ele>5.568</ele>
        <time>2019-09-16T12:00:20.000Z</time>
      </trkpt>
      <trkpt lat="50.4884" lon="1.708">
        <ele>6.637</ele>
        <time>2019-09-16T12:00:50.000Z</time>
      </trkpt>
      <trkpt lat="50.48786" lon="1.71036">
        <ele>9.037</ele>
        <time>2019-09-16T12:01:20.000Z</time>
      </trkpt>
      <trkpt lat="50.48809" lon="1.71289">
        <ele>11.211</ele>
        <time>2019-09-16T12:01:50.000Z</time>
      </trkpt>
      <trkpt lat="50.48774" lon="1.715">
        <ele>7.619</ele>
        <time>2019-09-16T12:02:20.000Z</time>
      </trkpt>
      <trkpt lat="50.48773" lon="1.7175">
        <ele>7.376</ele>
        <time>2019-09-16T12:02:50.000Z</time>
      </trkpt>
      <trkpt lat="50.48767" lon="1.72003">
        <ele>7.456</ele>
        <time>2019-09-16T12:03:20.000Z</time>
      </trkpt>
      <trkpt lat="50.48742" lon="1.72266">
        <ele>8.73</ele>
        <time>2019-09-16T12:03:50.000Z</time>
      </trkpt>
      <trkpt lat="50.48737" lon="1.72452">
        <ele>5.676</ele>
        <time>2019-09-16T12:04:20.000Z</time>
      </trkpt>
      <trkpt lat="50.48873" lon="1.72407">
        <ele>5.754</ele>
        <time>2019-09-16T12:04:50.000Z</time>
      </trkpt>
      <trkpt lat="50.49014" lon="1.72404">
        <ele>7.703</ele>
        <time>2019-09-16T12:05:23.000Z</time>
      </trkpt>
      <trkpt lat="50.49073" lon="1.72504">
        <ele>10.059</ele>
        <time>2019-09-16T12:05:53.000Z</time>
      </trkpt>
      <trkpt lat="50.4907" lon="1.7274">
        <ele>9.109</ele>
        <time>2019-09-16T12:06:23.000Z</time>
      </trkpt>
      <trkpt lat="50.49033" lon="1.72994">
        <ele>8.29</ele>
        <time>2019-09-16T12:06:53.000Z</time>
      </trkpt>
      <trkpt lat="50.48987" lon="1.73266">
        <ele>11.025</ele>
        <time>2019-09-16T12:07:23.000Z</time>
      </trkpt>
      <trkpt lat="50.48913" lon="1.73522">
        <ele>9.351</ele>
        <time>2019-09-16T12:07:53.000Z</time>
      </trkpt>
      <trkpt lat="50.48833" lon="1.73772">
        <ele>10.612</ele>
        <time>2019-09-16T12:08:23.000Z</time>
      </trkpt>
      <trkpt lat="50.48824" lon="1.74054">
        <ele>11.688</ele>
        <time>2019-09-16T12:08:53.000Z</time>
      </trkpt>
      <trkpt lat="50.48712" lon="1.74261">
        <ele>7.841</ele>
        <time>2019-09-16T12:09:23.000Z</time>
      </trkpt>
      <trkpt lat="50.48729" lon="1.74419">
        <ele>11.094</ele>
        <time>2019-09-16T12:09:53.000Z</time>
      </trkpt>
      <trkpt lat="50.48673" lon="1.74592">
        <ele>14.447</ele>
        <time>2019-09-16T12:10:23.000Z</time>
      </trkpt>
      <trkpt lat="50.48582" lon="1.74786">
        <ele>15.063</ele>
        <time>2019-09-16T12:10:53.000Z</time>
      </trkpt>
      <trkpt lat="50.48504" lon="1.75013">
        <ele>13.657</ele>
        <time>2019-09-16T12:11:23.000Z</time>
      </trkpt>
      <trkpt lat="50.48402" lon="1.7521">
        <ele>12.386</ele>
        <time>2019-09-16T12:11:53.000Z</time>
      </trkpt>
      <trkpt lat="50.48359" lon="1.75361">
        <ele>16.379</ele>
        <time>2019-09-16T12:12:23.000Z</time>
      </trkpt>
      <trkpt lat="50.48322" lon="1.75505">
        <ele>22.318</ele>
        <time>2019-09-16T12:12:53.000Z</time>
      </trkpt>
      <trkpt lat="50.48288" lon="1.75719">
        <ele>18.99</ele>
        <time>2019-09-16T12:13:23.000Z</time>
      </trkpt>
      <trkpt lat="50.48248" lon="1.76035">
        <ele>14.712</ele>
        <time>2019-09-16T12:13:56.000Z</time>
      </trkpt>
      <trkpt lat="50.48136" lon="1.76381">
        <ele>7.604</ele>
        <time>2019-09-16T12:14:26.000Z</time>
      </trkpt>
      <trkpt lat="50.47988" lon="1.76561">
        <ele>6.415</ele>
        <time>2019-09-16T12:14:56.000Z</time>
      </trkpt>
      <trkpt lat="50.4792" lon="1.76748">
        <ele>6.182</ele>
        <time>2019-09-16T12:15:26.000Z</time>
      </trkpt>
      <trkpt lat="50.47812" lon="1.76928">
        <ele>9.771</ele>
        <time>2019-09-16T12:15:56.000Z</time>
      </trkpt>
      <trkpt lat="50.47709" lon="1.77075">
        <ele>10.783</ele>
        <time>2019-09-16T12:16:26.000Z</time>
      </trkpt>
      <trkpt lat="50.47615" lon="1.77195">
        <ele>19.028</ele>
        <time>2019-09-16T12:16:56.000Z</time>
      </trkpt>
      <trkpt lat="50.47569" lon="1.77342">
        <ele>23.36</ele>
        <time>2019-09-16T12:17:26.000Z</time>
      </trkpt>
      <trkpt lat="50.47521" lon="1.77553">
        <ele>30.369</ele>
        <time>2019-09-16T12:17:56.000Z</time>
      </trkpt>
      <trkpt lat="50.47496" lon="1.77741">
        <ele>20.481</ele>
        <time>2019-09-16T12:18:26.000Z</time>
      </trkpt>
      <trkpt lat="50.47487" lon="1.77874">
        <ele>22.551</ele>
        <time>2019-09-16T12:18:56.000Z</time>
      </trkpt>
      <trkpt lat="50.47451" lon="1.78035">
        <ele>21.536</ele>
        <time>2019-09-16T12:19:26.000Z</time>
      </trkpt>
      <trkpt lat="50.47343" lon="1.78347">
        <ele>11.249</ele>
        <time>2019-09-16T12:19:56.000Z</time>
      </trkpt>
      <trkpt lat="50.47275" lon="1.78516">
        <ele>13.298</ele>
        <time>2019-09-16T12:20:26.000Z</time>
      </trkpt>
      <trkpt lat="50.47226" lon="1.78643">
        <ele>18.103</ele>
        <time>2019-09-16T12:20:56.000Z</time>
      </trkpt>
      <trkpt lat="50.47161" lon="1.78801">
        <ele>23.197</ele>
        <time>2019-09-16T12:21:26.000Z</time>
      </trkpt>
      <trkpt lat="50.4706" lon="1.78917">
        <ele>23.847</ele>
        <time>2019-09-16T12:21:56.000Z</time>
      </trkpt>
      <trkpt lat="50.46942" lon="1.79137">
        <ele>21.721</ele>
        <time>2019-09-16T12:22:29.000Z</time>
      </trkpt>
      <trkpt lat="50.4683" lon="1.79397">
        <ele>16.177</ele>
        <time>2019-09-16T12:22:59.000Z</time>
      </trkpt>
      <trkpt lat="50.46762" lon="1.79691">
        <ele>9.69</ele>
        <time>2019-09-16T12:23:29.000Z</time>
      </trkpt>
      <trkpt lat="50.4671" lon="1.79915">
        <ele>9.69</ele>
        <time>2019-09-16T12:23:59.000Z</time>
      </trkpt>
      <trkpt lat="50.46659" lon="1.80155">
        <ele>12.665</ele>
        <time>2019-09-16T12:24:29.000Z</time>
      </trkpt>
      <trkpt lat="50.46584" lon="1.80388">
        <ele>16.52</ele>
        <time>2019-09-16T12:24:59.000Z</time>
      </trkpt>
      <trkpt lat="50.46512" lon="1.80628">
        <ele>13.683</ele>
        <time>2019-09-16T12:25:29.000Z</time>
      </trkpt>
      <trkpt lat="50.4643" lon="1.80896">
        <ele>9.371</ele>
        <time>2019-09-16T12:25:59.000Z</time>
      </trkpt>
      <trkpt lat="50.46343" lon="1.81158">
        <ele>13.486</ele>
        <time>2019-09-16T12:26:29.000Z</time>
      </trkpt>
      <trkpt lat="50.46259" lon="1.81384">
        <ele>14.999</ele>
        <time>2019-09-16T12:26:59.000Z</time>
      </trkpt>
      <trkpt lat="50.46222" lon="1.81537">
        <ele>18.51</ele>
        <time>2019-09-16T12:27:29.000Z</time>
      </trkpt>
      <trkpt lat="50.46177" lon="1.8167">
        <ele>21.166</ele>
        <time>2019-09-16T12:27:59.000Z</time>
      </trkpt>
      <trkpt lat="50.46091" lon="1.81886">
        <ele>20.052</ele>
        <time>2019-09-16T12:28:29.000Z</time>
      </trkpt>
      <trkpt lat="50.46046" lon="1.82036">
        <ele>24.149</ele>
        <time>2019-09-16T12:28:59.000Z</time>
      </trkpt>
      <trkpt lat="50.46002" lon="1.82202">
        <ele>26.951</ele>
        <time>2019-09-16T12:29:29.000Z</time>
      </trkpt>
      <trkpt lat="50.45954" lon="1.82372">
        <ele>26.946</ele>
        <time>2019-09-16T12:29:59.000Z</time>
      </trkpt>
      <trkpt lat="50.45913" lon="1.8255">
        <ele>30.952</ele>
        <time>2019-09-16T12:30:29.000Z</time>
      </trkpt>
      <trkpt lat="50.45756" lon="1.82692">
        <ele>22.153</ele>
        <time>2019-09-16T12:30:59.000Z</time>
      </trkpt>
      <trkpt lat="50.45576" lon="1.82721">
        <ele>7.107</ele>
        <time>2019-09-16T12:31:32.000Z</time>
      </trkpt>
      <trkpt lat="50.45506" lon="1.8296">
        <ele>5.705</ele>
        <time>2019-09-16T12:32:02.000Z</time>
      </trkpt>
      <trkpt lat="50.45435" lon="1.83161">
        <ele>6.33</ele>
        <time>2019-09-16T12:32:32.000Z</time>
      </trkpt>
      <trkpt lat="50.45418" lon="1.83296">
        <ele>9.736</ele>
        <time>2019-09-16T12:52:08.001Z</time>
      </trkpt>
      <trkpt lat="50.45392" lon="1.83395">
        <ele>13.064</ele>
        <time>2019-09-16T12:56:44.001Z</time>
      </trkpt>
      <trkpt lat="50.45367" lon="1.83576">
        <ele>11.868</ele>
        <time>2019-09-16T12:57:14.001Z</time>
      </trkpt>
      <trkpt lat="50.45338" lon="1.83785">
        <ele>15.584</ele>
        <time>2019-09-16T12:57:44.001Z</time>
      </trkpt>
      <trkpt lat="50.45305" lon="1.84046">
        <ele>12.516</ele>
        <time>2019-09-16T12:58:14.001Z</time>
      </trkpt>
      <trkpt lat="50.45262" lon="1.84269">
        <ele>10.262</ele>
        <time>2019-09-16T12:58:44.001Z</time>
      </trkpt>
      <trkpt lat="50.45188" lon="1.84497">
        <ele>9.628</ele>
        <time>2019-09-16T12:59:14.001Z</time>
      </trkpt>
      <trkpt lat="50.45077" lon="1.84722">
        <ele>9.172</ele>
        <time>2019-09-16T12:59:44.001Z</time>
      </trkpt>
      <trkpt lat="50.45" lon="1.849">
        <ele>10.898</ele>
        <time>2019-09-16T13:00:14.001Z</time>
      </trkpt>
      <trkpt lat="50.44938" lon="1.85104">
        <ele>11.356</ele>
        <time>2019-09-16T13:00:44.001Z</time>
      </trkpt>
      <trkpt lat="50.44882" lon="1.85188">
        <ele>19.57</ele>
        <time>2019-09-16T13:01:14.001Z</time>
      </trkpt>
      <trkpt lat="50.44836" lon="1.85283">
        <ele>24.364</ele>
        <time>2019-09-16T13:01:44.001Z</time>
      </trkpt>
      <trkpt lat="50.44811" lon="1.85398">
        <ele>30.248</ele>
        <time>2019-09-16T13:02:14.001Z</time>
      </trkpt>
      <trkpt lat="50.44799" lon="1.85547">
        <ele>32.009</ele>
        <time>2019-09-16T13:02:44.001Z</time>
      </trkpt>
      <trkpt lat="50.44762" lon="1.85788">
        <ele>27.398</ele>
        <time>2019-09-16T13:03:17.001Z</time>
      </trkpt>
      <trkpt lat="50.44737" lon="1.86022">
        <ele>26.745</ele>
        <time>2019-09-16T13:03:47.001Z</time>
      </trkpt>
      <trkpt lat="50.44689" lon="1.86212">
        <ele>25.743</ele>
        <time>2019-09-16T13:04:17.001Z</time>
      </trkpt>
      <trkpt lat="50.44636" lon="1.8644">
        <ele>30.333</ele>
        <time>2019-09-16T13:04:47.001Z</time>
      </trkpt>
      <trkpt lat="50.446" lon="1.86703">
        <ele>28.618</ele>
        <time>2019-09-16T13:05:17.001Z</time>
      </trkpt>
      <trkpt lat="50.44609" lon="1.87041">
        <ele>19.171</ele>
        <time>2019-09-16T13:05:47.001Z</time>
      </trkpt>
      <trkpt lat="50.44593" lon="1.8735">
        <ele>15.793</ele>
        <time>2019-09-16T13:06:17.001Z</time>
      </trkpt>
      <trkpt lat="50.44443" lon="1.87378">
        <ele>14.429</ele>
        <time>2019-09-16T13:06:47.001Z</time>
      </trkpt>
      <trkpt lat="50.44275" lon="1.87449">
        <ele>13.939</ele>
        <time>2019-09-16T13:07:17.001Z</time>
      </trkpt>
      <trkpt lat="50.44159" lon="1.87619">
        <ele>16.315</ele>
        <time>2019-09-16T13:07:47.001Z</time>
      </trkpt>
      <trkpt lat="50.44076" lon="1.87771">
        <ele>18.74</ele>
        <time>2019-09-16T13:08:17.001Z</time>
      </trkpt>
      <trkpt lat="50.44007" lon="1.88005">
        <ele>21.637</ele>
        <time>2019-09-16T13:08:47.001Z</time>
      </trkpt>
      <trkpt lat="50.43901" lon="1.88283">
        <ele>14.456</ele>
        <time>2019-09-16T13:09:17.001Z</time>
      </trkpt>
      <trkpt lat="50.43827" lon="1.88567">
        <ele>14.442</ele>
        <time>2019-09-16T13:09:47.001Z</time>
      </trkpt>
      <trkpt lat="50.43744" lon="1.88757">
        <ele>17.79</ele>
        <time>2019-09-16T13:10:17.001Z</time>
      </trkpt>
      <trkpt lat="50.43663" lon="1.88942">
        <ele>19.287</ele>
        <time>2019-09-16T13:10:47.001Z</time>
      </trkpt>
      <trkpt lat="50.4361" lon="1.89095">
        <ele>23.152</ele>
        <time>2019-09-16T13:11:17.001Z</time>
      </trkpt>
      <trkpt lat="50.4356" lon="1.89241">
        <ele>29.518</ele>
        <time>2019-09-16T13:11:50.001Z</time>
      </trkpt>
      <trkpt lat="50.43515" lon="1.89367">
        <ele>33.09</ele>
        <time>2019-09-16T13:12:20.001Z</time>
      </trkpt>
      <trkpt lat="50.43342" lon="1.8957">
        <ele>23.909</ele>
        <time>2019-09-16T13:12:50.001Z</time>
      </trkpt>
      <trkpt lat="50.43157" lon="1.89825">
        <ele>12.265</ele>
        <time>2019-09-16T13:13:20.001Z</time>
      </trkpt>
      <trkpt lat="50.43094" lon="1.90149">
        <ele>13.059</ele>
        <time>2019-09-16T13:13:50.001Z</time>
      </trkpt>
      <trkpt lat="50.43063" lon="1.90477">
        <ele>10.539</ele>
        <time>2019-09-16T13:14:20.001Z</time>
      </trkpt>
      <trkpt lat="50.43024" lon="1.9074">
        <ele>11.931</ele>
        <time>2019-09-16T13:14:50.001Z</time>
      </trkpt>
      <trkpt lat="50.42958" lon="1.90971">
        <ele>12.156</ele>
        <time>2019-09-16T13:15:20.001Z</time>
      </trkpt>
      <trkpt lat="50.42862" lon="1.90938">
        <ele>15.643</ele>
        <time>2019-09-16T13:15:50.001Z</time>
      </trkpt>
      <trkpt lat="50.42745" lon="1.90919">
        <ele>16.203</ele>
        <time>2019-09-16T13:16:20.001Z</time>
      </trkpt>
      <trkpt lat="50.42636" lon="1.90973">
        <ele>20.516</ele>
        <time>2019-09-16T13:16:50.001Z</time>
      </trkpt>
      <trkpt lat="50.42571" lon="1.91197">
        <ele>17.972</ele>
        <time>2019-09-16T13:17:20.001Z</time>
      </trkpt>
      <trkpt lat="50.42507" lon="1.91395">
        <ele>17.338</ele>
        <time>2019-09-16T13:17:50.001Z</time>
      </trkpt>
      <trkpt lat="50.42459" lon="1.91566">
        <ele>21.515</ele>
        <time>2019-09-16T13:18:20.001Z</time>
      </trkpt>
      <trkpt lat="50.42394" lon="1.91742">
        <ele>20.04</ele>
        <time>2019-09-16T13:18:50.001Z</time>
      </trkpt>
      <trkpt lat="50.42309" lon="1.91957">
        <ele>16.348</ele>
        <time>2019-09-16T13:19:20.001Z</time>
      </trkpt>
      <trkpt lat="50.42247" lon="1.92225">
        <ele>15.704</ele>
        <time>2019-09-16T13:19:50.001Z</time>
      </trkpt>
      <trkpt lat="50.42131" lon="1.92486">
        <ele>18.307</ele>
        <time>2019-09-16T13:20:23.001Z</time>
      </trkpt>
      <trkpt lat="50.42075" lon="1.92722">
        <ele>17.7</ele>
        <time>2019-09-16T13:20:53.001Z</time>
      </trkpt>
      <trkpt lat="50.42016" lon="1.92925">
        <ele>18.556</ele>
        <time>2019-09-16T13:21:23.001Z</time>
      </trkpt>
      <trkpt lat="50.41951" lon="1.93112">
        <ele>21.195</ele>
        <time>2019-09-16T13:21:53.001Z</time>
      </trkpt>
      <trkpt lat="50.41894" lon="1.93302">
        <ele>24.165</ele>
        <time>2019-09-16T13:22:23.001Z</time>
      </trkpt>
      <trkpt lat="50.4182" lon="1.93548">
        <ele>22.679</ele>
        <time>2019-09-16T13:22:53.001Z</time>
      </trkpt>
      <trkpt lat="50.41737" lon="1.93856">
        <ele>18.093</ele>
        <time>2019-09-16T13:23:23.001Z</time>
      </trkpt>
      <trkpt lat="50.41663" lon="1.94066">
        <ele>20.662</ele>
        <time>2019-09-16T13:23:53.001Z</time>
      </trkpt>
      <trkpt lat="50.4164" lon="1.94204">
        <ele>29.028</ele>
        <time>2019-09-16T13:24:23.001Z</time>
      </trkpt>
      <trkpt lat="50.41616" lon="1.94343">
        <ele>32.797</ele>
        <time>2019-09-16T13:24:53.001Z</time>
      </trkpt>
      <trkpt lat="50.41597" lon="1.94496">
        <ele>33.739</ele>
        <time>2019-09-16T13:25:23.001Z</time>
      </trkpt>
      <trkpt lat="50.41564" lon="1.94654">
        <ele>35.323</ele>
        <time>2019-09-16T13:25:53.001Z</time>
      </trkpt>
      <trkpt lat="50.41516" lon="1.94832">
        <ele>34.389</ele>
        <time>2019-09-16T13:26:23.001Z</time>
      </trkpt>
      <trkpt lat="50.41366" lon="1.95104">
        <ele>27.989</ele>
        <time>2019-09-16T13:26:53.001Z</time>
      </trkpt>
      <trkpt lat="50.41146" lon="1.95393">
        <ele>15.785</ele>
        <time>2019-09-16T13:27:23.001Z</time>
      </trkpt>
      <trkpt lat="50.41014" lon="1.95672">
        <ele>17.167</ele>
        <time>2019-09-16T13:27:53.001Z</time>
      </trkpt>
      <trkpt lat="50.40929" lon="1.9594">
        <ele>19.367</ele>
        <time>2019-09-16T13:28:23.001Z</time>
      </trkpt>
      <trkpt lat="50.40839" lon="1.9619">
        <ele>23.157</ele>
        <time>2019-09-16T13:28:53.001Z</time>
      </trkpt>
      <trkpt lat="50.4073" lon="1.96447">
        <ele>19.393</ele>
        <time>2019-09-16T13:29:26.001Z</time>
      </trkpt>
      <trkpt lat="50.40674" lon="1.9665">
        <ele>23.75</ele>
        <time>2019-09-16T13:29:56.001Z</time>
      </trkpt>
      <trkpt lat="50.40536" lon="1.96797">
        <ele>19.805</ele>
        <time>2019-09-16T13:30:26.001Z</time>
      </trkpt>
      <trkpt lat="50.40457" lon="1.97039">
        <ele>21.623</ele>
        <time>2019-09-16T13:30:56.001Z</time>
      </trkpt>
      <trkpt lat="50.40409" lon="1.97265">
        <ele>21.959</ele>
        <time>2019-09-16T13:31:26.001Z</time>
      </trkpt>
      <trkpt lat="50.40417" lon="1.9751">
        <ele>20.358</ele>
        <time>2019-09-16T13:31:56.001Z</time>
      </trkpt>
      <trkpt lat="50.40364" lon="1.97651">
        <ele>24.516</ele>
        <time>2019-09-16T13:32:26.001Z</time>
      </trkpt>
      <trkpt lat="50.40317" lon="1.97724">
        <ele>32.413</ele>
        <time>2019-09-16T13:32:56.001Z</time>
      </trkpt>
      <trkpt lat="50.40244" lon="1.97772">
        <ele>33.983</ele>
        <time>2019-09-16T13:33:26.001Z</time>
      </trkpt>
      <trkpt lat="50.40021" lon="1.97749">
        <ele>26.536</ele>
        <time>2019-09-16T13:33:56.001Z</time>
      </trkpt>
      <trkpt lat="50.39908" lon="1.97937">
        <ele>21.418</ele>
        <time>2019-09-16T13:34:26.001Z</time>
      </trkpt>
      <trkpt lat="50.39825" lon="1.98071">
        <ele>24.288</ele>
        <time>2019-09-16T13:34:56.001Z</time>
      </trkpt>
      <trkpt lat="50.39773" lon="1.98229">
        <ele>26.999</ele>
        <time>2019-09-16T13:35:26.001Z</time>
      </trkpt>
      <trkpt lat="50.39707" lon="1.98381">
        <ele>27.729</ele>
        <time>2019-09-16T13:35:56.001Z</time>
      </trkpt>
      <trkpt lat="50.39601" lon="1.9855">
        <ele>24.053</ele>
        <time>2019-09-16T13:36:26.001Z</time>
      </trkpt>
      <trkpt lat="50.3951" lon="1.98733">
        <ele>26.17</ele>
        <time>2019-09-16T13:36:56.001Z</time>
      </trkpt>
      <trkpt lat="50.39415" lon="1.98909">
        <ele>25.2</ele>
        <time>2019-09-16T13:37:26.001Z</time>
      </trkpt>
      <trkpt lat="50.39343" lon="1.99152">
        <ele>26.728</ele>
        <time>2019-09-16T13:37:59.001Z</time>
      </trkpt>
      <trkpt lat="50.39234" lon="1.99395">
        <ele>28.176</ele>
        <time>2019-09-16T13:38:29.001Z</time>
      </trkpt>
      <trkpt lat="50.39135" lon="1.99717">
        <ele>29.973</ele>
        <time>2019-09-16T13:38:59.001Z</time>
      </trkpt>
      <trkpt lat="50.39057" lon="1.99892">
        <ele>26.893</ele>
        <time>2019-09-16T13:39:29.001Z</time>
      </trkpt>
      <trkpt lat="50.38975" lon="2.00006">
        <ele>28.664</ele>
        <time>2019-09-16T13:39:59.001Z</time>
      </trkpt>
      <trkpt lat="50.38848" lon="2.00229">
        <ele>27.631</ele>
        <time>2019-09-16T13:40:29.001Z</time>
      </trkpt>
      <trkpt lat="50.38746" lon="2.00403">
        <ele>27.599</ele>
        <time>2019-09-16T13:40:59.001Z</time>
      </trkpt>
      <trkpt lat="50.38653" lon="2.00559">
        <ele>27.305</ele>
        <time>2019-09-16T13:41:29.001Z</time>
      </trkpt>
      <trkpt lat="50.38559" lon="2.00747">
        <ele>27.532</ele>
        <time>2019-09-16T13:41:59.001Z</time>
      </trkpt>
      <trkpt lat="50.38483" lon="2.00943">
        <ele>27.905</ele>
        <time>2019-09-16T13:42:29.001Z</time>
      </trkpt>
      <trkpt lat="50.38348" lon="2.01133">
        <ele>24.325</ele>
        <time>2019-09-16T13:42:59.001Z</time>
      </trkpt>
      <trkpt lat="50.38199" lon="2.0136">
        <ele>21.158</ele>
        <time>2019-09-16T13:43:29.001Z</time>
      </trkpt>
      <trkpt lat="50.38171" lon="2.01665">
        <ele>21.195</ele>
        <time>2019-09-16T13:43:59.001Z</time>
      </trkpt>
      <trkpt lat="50.38171" lon="2.01962">
        <ele>22.191</ele>
        <time>2019-09-16T13:44:29.001Z</time>
      </trkpt>
      <trkpt lat="50.3821" lon="2.0224">
        <ele>21.868</ele>
        <time>2019-09-16T13:44:59.001Z</time>
      </trkpt>
      <trkpt lat="50.38194" lon="2.02499">
        <ele>20.879</ele>
        <time>2019-09-16T13:45:29.001Z</time>
      </trkpt>
      <trkpt lat="50.38143" lon="2.0269">
        <ele>27.159</ele>
        <time>2019-09-16T13:45:59.001Z</time>
      </trkpt>
      <trkpt lat="50.38103" lon="2.02936">
        <ele>22.825</ele>
        <time>2019-09-16T13:46:32.001Z</time>
      </trkpt>
      <trkpt lat="50.38136" lon="2.0314">
        <ele>23.596</ele>
        <time>2019-09-16T13:47:02.000Z</time>
      </trkpt>
      <trkpt lat="50.38164" lon="2.03366">
        <ele>28.724</ele>
        <time>2019-09-16T13:47:32.001Z</time>
      </trkpt>
      <trkpt lat="50.38129" lon="2.03593">
        <ele>27.906</ele>
        <time>2019-09-16T13:48:02.000Z</time>
      </trkpt>
      <trkpt lat="50.38091" lon="2.03765">
        <ele>32.466</ele>
        <time>2019-09-16T13:48:32.001Z</time>
      </trkpt>
      <trkpt lat="50.38038" lon="2.03818">
        <ele>28.384</ele>
        <time>2019-09-16T13:49:23.001Z</time>
      </trkpt>
      <trkpt lat="50.38071" lon="2.03789">
        <ele>28.258</ele>
        <time>2019-09-16T13:50:35.001Z</time>
      </trkpt>
      <trkpt lat="50.38071" lon="2.03783">
        <ele>31.897</ele>
        <time>2019-09-16T13:51:38.001Z</time>
      </trkpt>
      <trkpt lat="50.37999" lon="2.03778">
        <ele>27.949</ele>
        <time>2019-09-16T13:52:08.001Z</time>
      </trkpt>
      <trkpt lat="50.37885" lon="2.03686">
        <ele>26.219</ele>
        <time>2019-09-16T13:52:38.001Z</time>
      </trkpt>
      <trkpt lat="50.37894" lon="2.03877">
        <ele>35.412</ele>
        <time>2019-09-16T13:53:08.001Z</time>
      </trkpt>
      <trkpt lat="50.37935" lon="2.04092">
        <ele>31.299</ele>
        <time>2019-09-16T13:53:38.001Z</time>
      </trkpt>
      <trkpt lat="50.3797" lon="2.04269">
        <ele>31.019</ele>
        <time>2019-09-16T13:54:08.001Z</time>
      </trkpt>
      <trkpt lat="50.37979" lon="2.04302">
        <ele>32.866</ele>
        <time>2019-09-16T13:57:41.001Z</time>
      </trkpt>
      <trkpt lat="50.37992" lon="2.04461">
        <ele>29.655</ele>
        <time>2019-09-16T13:58:11.001Z</time>
      </trkpt>
      <trkpt lat="50.37995" lon="2.04644">
        <ele>33.866</ele>
        <time>2019-09-16T13:58:41.001Z</time>
      </trkpt>
      <trkpt lat="50.37978" lon="2.04811">
        <ele>34.014</ele>
        <time>2019-09-16T13:59:11.001Z</time>
      </trkpt>
      <trkpt lat="50.37949" lon="2.04999">
        <ele>34.532</ele>
        <time>2019-09-16T13:59:44.001Z</time>
      </trkpt>
      <trkpt lat="50.37985" lon="2.05173">
        <ele>32.805</ele>
        <time>2019-09-16T14:00:14.001Z</time>
      </trkpt>
      <trkpt lat="50.38017" lon="2.05335">
        <ele>27.162</ele>
        <time>2019-09-16T14:00:44.001Z</time>
      </trkpt>
      <trkpt lat="50.3805" lon="2.05506">
        <ele>26.186</ele>
        <time>2019-09-16T14:01:14.001Z</time>
      </trkpt>
      <trkpt lat="50.38108" lon="2.05666">
        <ele>27.982</ele>
        <time>2019-09-16T14:01:44.001Z</time>
      </trkpt>
      <trkpt lat="50.38171" lon="2.05826">
        <ele>26.358</ele>
        <time>2019-09-16T14:02:14.001Z</time>
      </trkpt>
      <trkpt lat="50.38248" lon="2.05996">
        <ele>30.891</ele>
        <time>2019-09-16T14:02:44.001Z</time>
      </trkpt>
      <trkpt lat="50.38339" lon="2.06155">
        <ele>34.652</ele>
        <time>2019-09-16T14:03:14.001Z</time>
      </trkpt>
      <trkpt lat="50.38445" lon="2.06306">
        <ele>29.813</ele>
        <time>2019-09-16T14:03:44.001Z</time>
      </trkpt>
      <trkpt lat="50.38452" lon="2.06458">
        <ele>27.464</ele>
        <time>2019-09-16T14:04:14.001Z</time>
      </trkpt>
      <trkpt lat="50.38367" lon="2.06612">
        <ele>31.417</ele>
        <time>2019-09-16T14:04:44.001Z</time>
      </trkpt>
      <trkpt lat="50.3829" lon="2.06763">
        <ele>35.235</ele>
        <time>2019-09-16T14:05:14.001Z</time>
      </trkpt>
      <trkpt lat="50.38216" lon="2.06899">
        <ele>32.636</ele>
        <time>2019-09-16T14:05:44.001Z</time>
      </trkpt>
      <trkpt lat="50.38155" lon="2.07011">
        <ele>35.207</ele>
        <time>2019-09-16T14:06:14.001Z</time>
      </trkpt>
      <trkpt lat="50.38132" lon="2.07043">
        <ele>35.566</ele>
        <time>2019-09-16T14:11:08.001Z</time>
      </trkpt>
      <trkpt lat="50.38112" lon="2.07027">
        <ele>37.069</ele>
        <time>2019-09-16T14:12:02.000Z</time>
      </trkpt>
      <trkpt lat="50.38116" lon="2.07045">
        <ele>36.866</ele>
        <time>2019-09-16T14:12:50.001Z</time>
      </trkpt>
      <trkpt lat="50.38122" lon="2.07057">
        <ele>33.828</ele>
        <time>2019-09-16T14:15:20.001Z</time>
      </trkpt>
      <trkpt lat="50.38134" lon="2.071">
        <ele>30.701</ele>
        <time>2019-09-16T14:30:23.001Z</time>
      </trkpt>
      <trkpt lat="50.38205" lon="2.07235">
        <ele>33.334</ele>
        <time>2019-09-16T14:30:53.001Z</time>
      </trkpt>
      <trkpt lat="50.3828" lon="2.07384">
        <ele>35.919</ele>
        <time>2019-09-16T14:31:23.001Z</time>
      </trkpt>
      <trkpt lat="50.38341" lon="2.07508">
        <ele>41.482</ele>
        <time>2019-09-16T14:31:53.001Z</time>
      </trkpt>
      <trkpt lat="50.38402" lon="2.07627">
        <ele>41.432</ele>
        <time>2019-09-16T14:32:23.001Z</time>
      </trkpt>
      <trkpt lat="50.38501" lon="2.07788">
        <ele>34.21</ele>
        <time>2019-09-16T14:32:53.001Z</time>
      </trkpt>
      <trkpt lat="50.38658" lon="2.0806">
        <ele>29.801</ele>
        <time>2019-09-16T14:33:23.001Z</time>
      </trkpt>
      <trkpt lat="50.388" lon="2.08307">
        <ele>22.388</ele>
        <time>2019-09-16T14:33:53.001Z</time>
      </trkpt>
      <trkpt lat="50.3893" lon="2.08583">
        <ele>20.372</ele>
        <time>2019-09-16T14:34:23.001Z</time>
      </trkpt>
      <trkpt lat="50.39038" lon="2.08865">
        <ele>18.627</ele>
        <time>2019-09-16T14:34:53.001Z</time>
      </trkpt>
      <trkpt lat="50.39114" lon="2.09072">
        <ele>20.881</ele>
        <time>2019-09-16T14:35:23.001Z</time>
      </trkpt>
      <trkpt lat="50.39195" lon="2.09259">
        <ele>25.737</ele>
        <time>2019-09-16T14:35:53.001Z</time>
      </trkpt>
      <trkpt lat="50.39275" lon="2.09442">
        <ele>28.952</ele>
        <time>2019-09-16T14:36:23.001Z</time>
      </trkpt>
      <trkpt lat="50.39334" lon="2.09626">
        <ele>35.532</ele>
        <time>2019-09-16T14:36:53.001Z</time>
      </trkpt>
      <trkpt lat="50.39406" lon="2.09832">
        <ele>36.351</ele>
        <time>2019-09-16T14:37:23.001Z</time>
      </trkpt>
      <trkpt lat="50.39514" lon="2.10043">
        <ele>32.175</ele>
        <time>2019-09-16T14:37:53.001Z</time>
      </trkpt>
      <trkpt lat="50.39592" lon="2.10227">
        <ele>31.259</ele>
        <time>2019-09-16T14:38:23.001Z</time>
      </trkpt>
      <trkpt lat="50.39696" lon="2.10354">
        <ele>24.726</ele>
        <time>2019-09-16T14:38:56.001Z</time>
      </trkpt>
      <trkpt lat="50.39823" lon="2.10233">
        <ele>30.002</ele>
        <time>2019-09-16T14:39:26.001Z</time>
      </trkpt>
      <trkpt lat="50.39939" lon="2.10242">
        <ele>35.917</ele>
        <time>2019-09-16T14:39:56.001Z</time>
      </trkpt>
      <trkpt lat="50.40002" lon="2.10214">
        <ele>33.752</ele>
        <time>2019-09-16T14:48:50.001Z</time>
      </trkpt>
      <trkpt lat="50.39998" lon="2.10222">
        <ele>35.872</ele>
        <time>2019-09-16T14:50:23.001Z</time>
      </trkpt>
      <trkpt lat="50.39956" lon="2.10219">
        <ele>35.382</ele>
        <time>2019-09-16T14:52:20.001Z</time>
      </trkpt>
      <trkpt lat="50.39919" lon="2.10206">
        <ele>34.206</ele>
        <time>2019-09-16T14:52:56.001Z</time>
      </trkpt>
      <trkpt lat="50.39902" lon="2.10201">
        <ele>35.861</ele>
        <time>2019-09-16T14:56:53.001Z</time>
      </trkpt>
      <trkpt lat="50.39837" lon="2.10223">
        <ele>40.226</ele>
        <time>2019-09-16T14:57:32.001Z</time>
      </trkpt>
      <trkpt lat="50.39742" lon="2.10292">
        <ele>34.116</ele>
        <time>2019-09-16T14:58:02.000Z</time>
      </trkpt>
      <trkpt lat="50.39747" lon="2.10292">
        <ele>34.796</ele>
        <time>2019-09-16T15:04:44.001Z</time>
      </trkpt>
      <trkpt lat="50.39665" lon="2.10369">
        <ele>36.742</ele>
        <time>2019-09-16T15:05:14.001Z</time>
      </trkpt>
      <trkpt lat="50.39693" lon="2.10509">
        <ele>36.683</ele>
        <time>2019-09-16T15:05:44.001Z</time>
      </trkpt>
      <trkpt lat="50.39731" lon="2.10745">
        <ele>40.584</ele>
        <time>2019-09-16T15:06:14.001Z</time>
      </trkpt>
      <trkpt lat="50.39771" lon="2.11041">
        <ele>38.031</ele>
        <time>2019-09-16T15:06:44.001Z</time>
      </trkpt>
      <trkpt lat="50.39783" lon="2.11294">
        <ele>36.962</ele>
        <time>2019-09-16T15:07:14.001Z</time>
      </trkpt>
      <trkpt lat="50.39803" lon="2.11517">
        <ele>40.361</ele>
        <time>2019-09-16T15:07:44.001Z</time>
      </trkpt>
      <trkpt lat="50.39851" lon="2.11727">
        <ele>38.387</ele>
        <time>2019-09-16T15:08:17.001Z</time>
      </trkpt>
      <trkpt lat="50.39941" lon="2.1196">
        <ele>42.544</ele>
        <time>2019-09-16T15:08:47.001Z</time>
      </trkpt>
      <trkpt lat="50.40015" lon="2.12141">
        <ele>39.414</ele>
        <time>2019-09-16T15:09:17.001Z</time>
      </trkpt>
      <trkpt lat="50.40093" lon="2.12287">
        <ele>40.313</ele>
        <time>2019-09-16T15:09:47.001Z</time>
      </trkpt>
      <trkpt lat="50.40201" lon="2.12537">
        <ele>37.517</ele>
        <time>2019-09-16T15:10:17.001Z</time>
      </trkpt>
      <trkpt lat="50.40263" lon="2.12789">
        <ele>41.712</ele>
        <time>2019-09-16T15:10:47.001Z</time>
      </trkpt>
      <trkpt lat="50.40336" lon="2.13028">
        <ele>43.746</ele>
        <time>2019-09-16T15:11:17.001Z</time>
      </trkpt>
      <trkpt lat="50.40421" lon="2.13274">
        <ele>38.952</ele>
        <time>2019-09-16T15:11:47.001Z</time>
      </trkpt>
      <trkpt lat="50.40489" lon="2.13506">
        <ele>41.263</ele>
        <time>2019-09-16T15:12:17.001Z</time>
      </trkpt>
      <trkpt lat="50.40553" lon="2.13727">
        <ele>40.398</ele>
        <time>2019-09-16T15:12:47.001Z</time>
      </trkpt>
      <trkpt lat="50.40599" lon="2.13987">
        <ele>41.493</ele>
        <time>2019-09-16T15:13:17.001Z</time>
      </trkpt>
      <trkpt lat="50.40629" lon="2.14229">
        <ele>42.526</ele>
        <time>2019-09-16T15:13:47.001Z</time>
      </trkpt>
      <trkpt lat="50.40646" lon="2.14487">
        <ele>41.197</ele>
        <time>2019-09-16T15:14:17.001Z</time>
      </trkpt>
      <trkpt lat="50.40653" lon="2.14761">
        <ele>40.808</ele>
        <time>2019-09-16T15:14:47.001Z</time>
      </trkpt>
      <trkpt lat="50.4066" lon="2.14949">
        <ele>45.943</ele>
        <time>2019-09-16T15:15:17.001Z</time>
      </trkpt>
      <trkpt lat="50.40699" lon="2.15113">
        <ele>50.748</ele>
        <time>2019-09-16T15:15:47.001Z</time>
      </trkpt>
      <trkpt lat="50.40779" lon="2.15312">
        <ele>46.477</ele>
        <time>2019-09-16T15:16:17.001Z</time>
      </trkpt>
      <trkpt lat="50.4092" lon="2.15499">
        <ele>44.013</ele>
        <time>2019-09-16T15:16:47.001Z</time>
      </trkpt>
      <trkpt lat="50.41054" lon="2.15678">
        <ele>45.725</ele>
        <time>2019-09-16T15:17:20.001Z</time>
      </trkpt>
      <trkpt lat="50.41201" lon="2.15883">
        <ele>41.188</ele>
        <time>2019-09-16T15:17:50.001Z</time>
      </trkpt>
      <trkpt lat="50.4132" lon="2.16047">
        <ele>44.591</ele>
        <time>2019-09-16T15:18:20.001Z</time>
      </trkpt>
      <trkpt lat="50.41426" lon="2.16188">
        <ele>44.716</ele>
        <time>2019-09-16T15:18:50.001Z</time>
      </trkpt>
      <trkpt lat="50.41528" lon="2.16324">
        <ele>45.563</ele>
        <time>2019-09-16T15:19:20.001Z</time>
      </trkpt>
      <trkpt lat="50.41645" lon="2.16417">
        <ele>41.665</ele>
        <time>2019-09-16T15:19:50.001Z</time>
      </trkpt>
      <trkpt lat="50.41793" lon="2.16458">
        <ele>47.128</ele>
        <time>2019-09-16T15:20:20.001Z</time>
      </trkpt>
      <trkpt lat="50.41955" lon="2.16499">
        <ele>49.94</ele>
        <time>2019-09-16T15:20:50.001Z</time>
      </trkpt>
      <trkpt lat="50.4207" lon="2.16618">
        <ele>49.836</ele>
        <time>2019-09-16T15:21:20.001Z</time>
      </trkpt>
      <trkpt lat="50.42168" lon="2.16779">
        <ele>50.474</ele>
        <time>2019-09-16T15:21:50.001Z</time>
      </trkpt>
      <trkpt lat="50.42093" lon="2.16868">
        <ele>50.191</ele>
        <time>2019-09-16T15:22:23.001Z</time>
      </trkpt>
      <trkpt lat="50.41997" lon="2.16938">
        <ele>53.299</ele>
        <time>2019-09-16T15:22:53.001Z</time>
      </trkpt>
      <trkpt lat="50.41895" lon="2.16983">
        <ele>51.276</ele>
        <time>2019-09-16T15:23:23.001Z</time>
      </trkpt>
      <trkpt lat="50.41807" lon="2.1699">
        <ele>54.872</ele>
        <time>2019-09-16T15:23:53.001Z</time>
      </trkpt>
      <trkpt lat="50.41722" lon="2.17008">
        <ele>61.522</ele>
        <time>2019-09-16T15:24:23.001Z</time>
      </trkpt>
      <trkpt lat="50.41645" lon="2.17025">
        <ele>66.582</ele>
        <time>2019-09-16T15:24:53.001Z</time>
      </trkpt>
      <trkpt lat="50.41574" lon="2.17057">
        <ele>67.912</ele>
        <time>2019-09-16T15:25:23.001Z</time>
      </trkpt>
      <trkpt lat="50.415" lon="2.17109">
        <ele>69.942</ele>
        <time>2019-09-16T15:25:56.001Z</time>
      </trkpt>
      <trkpt lat="50.41435" lon="2.17159">
        <ele>70.563</ele>
        <time>2019-09-16T15:26:26.001Z</time>
      </trkpt>
      <trkpt lat="50.41367" lon="2.17204">
        <ele>72.59</ele>
        <time>2019-09-16T15:26:56.001Z</time>
      </trkpt>
      <trkpt lat="50.41292" lon="2.17206">
        <ele>74.092</ele>
        <time>2019-09-16T15:27:26.001Z</time>
      </trkpt>
      <trkpt lat="50.41208" lon="2.17196">
        <ele>75.149</ele>
        <time>2019-09-16T15:27:56.001Z</time>
      </trkpt>
      <trkpt lat="50.41118" lon="2.17212">
        <ele>79.025</ele>
        <time>2019-09-16T15:28:26.001Z</time>
      </trkpt>
      <trkpt lat="50.4103" lon="2.17226">
        <ele>81.075</ele>
        <time>2019-09-16T15:28:56.001Z</time>
      </trkpt>
      <trkpt lat="50.40944" lon="2.17261">
        <ele>84.152</ele>
        <time>2019-09-16T15:29:26.001Z</time>
      </trkpt>
      <trkpt lat="50.40858" lon="2.1732">
        <ele>85.89</ele>
        <time>2019-09-16T15:29:56.001Z</time>
      </trkpt>
      <trkpt lat="50.40769" lon="2.17368">
        <ele>88.11</ele>
        <time>2019-09-16T15:30:26.001Z</time>
      </trkpt>
      <trkpt lat="50.40693" lon="2.17403">
        <ele>90.391</ele>
        <time>2019-09-16T15:30:56.001Z</time>
      </trkpt>
      <trkpt lat="50.40612" lon="2.17442">
        <ele>91.56</ele>
        <time>2019-09-16T15:31:26.001Z</time>
      </trkpt>
      <trkpt lat="50.40548" lon="2.17496">
        <ele>96.945</ele>
        <time>2019-09-16T15:31:56.001Z</time>
      </trkpt>
      <trkpt lat="50.40488" lon="2.17552">
        <ele>97.805</ele>
        <time>2019-09-16T15:32:29.001Z</time>
      </trkpt>
      <trkpt lat="50.40422" lon="2.17595">
        <ele>102.727</ele>
        <time>2019-09-16T15:33:02.000Z</time>
      </trkpt>
      <trkpt lat="50.40357" lon="2.176">
        <ele>107.76</ele>
        <time>2019-09-16T15:33:32.001Z</time>
      </trkpt>
      <trkpt lat="50.40291" lon="2.17604">
        <ele>110.026</ele>
        <time>2019-09-16T15:34:02.000Z</time>
      </trkpt>
      <trkpt lat="50.40222" lon="2.17592">
        <ele>110.931</ele>
        <time>2019-09-16T15:34:35.001Z</time>
      </trkpt>
      <trkpt lat="50.4016" lon="2.17577">
        <ele>115.924</ele>
        <time>2019-09-16T15:35:05.001Z</time>
      </trkpt>
      <trkpt lat="50.40098" lon="2.17617">
        <ele>121.972</ele>
        <time>2019-09-16T15:35:38.001Z</time>
      </trkpt>
      <trkpt lat="50.40016" lon="2.17673">
        <ele>120.054</ele>
        <time>2019-09-16T15:36:08.001Z</time>
      </trkpt>
      <trkpt lat="50.39897" lon="2.17779">
        <ele>114.577</ele>
        <time>2019-09-16T15:36:38.001Z</time>
      </trkpt>
      <trkpt lat="50.39937" lon="2.17981">
        <ele>113.468</ele>
        <time>2019-09-16T15:37:08.001Z</time>
      </trkpt>
      <trkpt lat="50.39949" lon="2.18171">
        <ele>116.074</ele>
        <time>2019-09-16T15:37:38.001Z</time>
      </trkpt>
      <trkpt lat="50.39976" lon="2.18365">
        <ele>118.701</ele>
        <time>2019-09-16T15:38:08.001Z</time>
      </trkpt>
      <trkpt lat="50.39996" lon="2.1857">
        <ele>119.692</ele>
        <time>2019-09-16T15:38:38.001Z</time>
      </trkpt>
      <trkpt lat="50.39992" lon="2.18773">
        <ele>115.636</ele>
        <time>2019-09-16T15:39:08.001Z</time>
      </trkpt>
      <trkpt lat="50.39999" lon="2.18977">
        <ele>113.602</ele>
        <time>2019-09-16T15:39:38.001Z</time>
      </trkpt>
      <trkpt lat="50.4005" lon="2.19197">
        <ele>109.638</ele>
        <time>2019-09-16T15:40:08.001Z</time>
      </trkpt>
      <trkpt lat="50.40081" lon="2.19497">
        <ele>107.809</ele>
        <time>2019-09-16T15:40:38.001Z</time>
      </trkpt>
      <trkpt lat="50.40105" lon="2.19775">
        <ele>105.401</ele>
        <time>2019-09-16T15:41:08.001Z</time>
      </trkpt>
      <trkpt lat="50.40172" lon="2.20003">
        <ele>104.685</ele>
        <time>2019-09-16T15:41:38.001Z</time>
      </trkpt>
      <trkpt lat="50.40235" lon="2.20215">
        <ele>104.953</ele>
        <time>2019-09-16T15:42:08.001Z</time>
      </trkpt>
      <trkpt lat="50.40284" lon="2.20396">
        <ele>105.48</ele>
        <time>2019-09-16T15:42:38.001Z</time>
      </trkpt>
      <trkpt lat="50.40342" lon="2.20566">
        <ele>107.88</ele>
        <time>2019-09-16T15:43:11.001Z</time>
      </trkpt>
      <trkpt lat="50.40403" lon="2.20686">
        <ele>112.577</ele>
        <time>2019-09-16T15:43:41.001Z</time>
      </trkpt>
      <trkpt lat="50.40444" lon="2.20762">
        <ele>114.226</ele>
        <time>2019-09-16T15:44:26.001Z</time>
      </trkpt>
      <trkpt lat="50.40457" lon="2.20777">
        <ele>112.837</ele>
        <time>2019-09-16T15:46:35.001Z</time>
      </trkpt>
      <trkpt lat="50.40504" lon="2.20896">
        <ele>119.036</ele>
        <time>2019-09-16T15:47:05.001Z</time>
      </trkpt>
      <trkpt lat="50.40526" lon="2.2102">
        <ele>119.093</ele>
        <time>2019-09-16T15:47:35.001Z</time>
      </trkpt>
      <trkpt lat="50.40545" lon="2.21128">
        <ele>119.573</ele>
        <time>2019-09-16T15:48:05.001Z</time>
      </trkpt>
      <trkpt lat="50.4048" lon="2.21203">
        <ele>125.415</ele>
        <time>2019-09-16T15:48:35.001Z</time>
      </trkpt>
      <trkpt lat="50.40435" lon="2.21269">
        <ele>126.901</ele>
        <time>2019-09-16T15:49:14.001Z</time>
      </trkpt>
    </trkseg>
  </trk>
</gpx>